Wonder Lake, Illinois
Current Conditions -  °F | °C
As of 5:15 PM on Wednesday 26 Nov 2014 (Local Time) from KBUU Reporting Station
Overcast Overcast  
Wind Chill: 16°   Ceiling: 2800
Heat Index: 24°   Visibility: 7mi
Dew Point: 22°   Wind: 7mph
Humidity: 91%   Direction: 330°NNW
Pressure: 30.14"   Gusts: NA
Location:  42.39°N, 88.35°W
Report Text: KBUU 262315Z AUTO 33006KT 7SM SCT019 OVC028 M04/M06 A3014 RMK AO2 T10441057
Loading
Personal Weather Stations






























Interactive Weather Map New forecast layout! Learn more

10-Day Weather Forecast

Advertisements
Track Severe Weather on mobile